Time;durP1;ratioP1;P1;durP2;ratioP2;P2;SDS_P1;SDS_P2;PMS_P1;PMS_P2;Temp;Humidity;BMP_temperature;BMP_pressure;BME280_temperature;BME280_humidity;BME280_pressure;Samples;Min_cycle;Max_cycle;Signal;HPM_P1;HPM_P2
2023/09/28 00:01:03;;;;;;;5.93;5.63;;;;;;;17.06;100.00;100572.25;6101620;23;20464;-73
2023/09/28 00:03:29;;;;;;;6.55;6.13;;;;;;;17.55;100.00;100687.63;6129323;23;20025;-72
2023/09/28 00:05:56;;;;;;;6.63;6.22;;;;;;;17.30;100.00;100649.00;6130492;23;20041;-72
2023/09/28 00:08:22;;;;;;;6.97;6.38;;;;;;;17.51;100.00;100739.25;6101274;23;20625;-72
2023/09/28 00:10:49;;;;;;;6.63;6.20;;;;;;;17.15;100.00;100681.06;6133833;23;20053;-74
2023/09/28 00:13:17;;;;;;;6.57;6.10;;;;;;;17.06;100.00;100684.47;6095860;23;20505;-75
2023/09/28 00:15:44;;;;;;;7.05;6.47;;;;;;;17.32;100.00;100750.53;6128085;23;20479;-72
2023/09/28 00:18:10;;;;;;;6.50;5.75;;;;;;;17.43;100.00;100773.53;6102099;23;20116;-72
2023/09/28 00:20:37;;;;;;;6.50;6.05;;;;;;;17.40;100.00;100781.72;6132973;23;20095;-73
2023/09/28 00:23:04;;;;;;;6.97;6.47;;;;;;;17.18;100.00;100764.00;6074493;23;20015;-74
2023/09/28 00:25:30;;;;;;;6.57;6.10;;;;;;;16.94;100.00;100749.09;6132153;23;20263;-75
2023/09/28 00:27:57;;;;;;;6.78;6.28;;;;;;;16.58;100.00;100723.56;6128179;23;20072;-73
2023/09/28 00:30:26;;;;;;;6.20;5.80;;;;;;;17.25;100.00;100850.94;6101264;23;20089;-74
2023/09/28 00:32:54;;;;;;;6.40;6.00;;;;;;;16.94;100.00;100802.94;6133467;23;20412;-73
2023/09/28 00:35:22;;;;;;;6.82;6.40;;;;;;;16.94;100.00;100795.00;6130016;23;20412;-74
2023/09/28 00:37:51;;;;;;;6.93;6.30;;;;;;;17.03;100.00;100806.69;6101152;23;20010;-72
2023/09/28 00:40:19;;;;;;;7.15;6.65;;;;;;;17.32;100.00;100832.75;6117279;23;20557;-73
2023/09/28 00:42:50;;;;;;;7.15;6.22;;;;;;;17.34;100.00;100796.34;6127934;23;20005;-72
2023/09/28 00:45:19;;;;;;;7.10;6.45;;;;;;;17.21;100.00;100731.94;6104482;23;20016;-73
2023/09/28 00:47:46;;;;;;;6.72;6.18;;;;;;;17.10;100.00;100693.88;6128354;23;20491;-72
2023/09/28 00:50:17;;;;;;;6.53;6.13;;;;;;;17.23;100.00;100711.47;6135759;23;20091;-72
2023/09/28 00:52:50;;;;;;;6.63;6.13;;;;;;;17.14;100.00;100711.22;6099661;23;20719;-74
2023/09/28 00:55:19;;;;;;;;;;;;;;;17.33;100.00;100754.84;6130481;23;20086;-74
2023/09/28 00:57:47;;;;;;;22.90;21.60;;;;;;;17.32;100.00;100759.31;5944460;23;20365;-72
2023/09/28 01:00:32;;;;;;;6.93;6.32;;;;;;;17.05;100.00;100717.25;6058722;23;20005;-74
2023/09/28 01:03:02;;;;;;;6.50;6.10;;;;;;;17.28;100.00;100752.56;6083954;23;20016;-74
2023/09/28 01:05:34;;;;;;;7.03;6.53;;;;;;;17.03;100.00;100723.66;6112122;23;20129;-74
2023/09/28 01:08:11;;;;;;;6.72;6.13;;;;;;;16.95;100.00;100738.34;6113497;23;20106;-73
2023/09/28 01:10:40;;;;;;;6.57;6.07;;;;;;;17.05;100.00;100750.88;6088911;23;20025;-72
2023/09/28 01:13:11;;;;;;;6.90;6.25;;;;;;;16.98;100.00;100739.94;6137451;23;20384;-73
2023/09/28 01:15:42;;;;;;;6.53;6.00;;;;;;;17.07;100.00;100751.59;6117447;23;20116;-73
2023/09/28 01:18:16;;;;;;;7.63;7.03;;;;;;;16.60;100.00;100682.78;6108725;23;20484;-73
2023/09/28 01:20:47;;;;;;;6.75;6.20;;;;;;;16.74;100.00;100702.91;6116202;23;20463;-73
2023/09/28 01:23:14;;;;;;;6.47;5.97;;;;;;;16.92;100.00;100738.59;6110817;23;20032;-73
2023/09/28 01:25:40;;;;;;;6.60;6.10;;;;;;;16.92;100.00;100743.91;6137610;23;20037;-73
2023/09/28 01:28:07;;;;;;;6.82;6.40;;;;;;;17.13;100.00;100761.72;6120317;23;20021;-73
2023/09/28 01:30:34;;;;;;;6.65;6.15;;;;;;;17.19;100.00;100766.53;6113366;23;20098;-74
2023/09/28 01:33:02;;;;;;;6.03;5.72;;;;;;;17.22;100.00;100754.84;6118399;23;20010;-73
2023/09/28 01:35:29;;;;;;;6.65;6.25;;;;;;;17.23;100.00;100748.59;6113289;23;20036;-73
2023/09/28 01:38:16;;;;;;;6.60;6.20;;;;;;;16.84;100.00;100684.47;6110373;23;20027;-73
2023/09/28 01:40:44;;;;;;;6.90;6.40;;;;;;;17.21;100.00;100763.78;6138073;23;20107;-75
2023/09/28 01:43:11;;;;;;;6.82;6.32;;;;;;;17.10;100.00;100738.13;6114593;23;20488;-73
2023/09/28 01:45:38;;;;;;;6.50;6.10;;;;;;;16.79;100.00;100699.88;6145388;23;20105;-74
2023/09/28 01:48:05;;;;;;;6.88;6.28;;;;;;;16.90;100.00;100713.19;6113621;23;20022;-73
2023/09/28 01:50:32;;;;;;;6.85;6.35;;;;;;;16.74;100.00;100702.91;6112265;23;20028;-73
2023/09/28 01:52:59;;;;;;;6.53;6.13;;;;;;;17.03;100.00;100761.59;6120638;23;20013;-73
2023/09/28 01:55:26;;;;;;;6.85;6.22;;;;;;;16.88;100.00;100731.00;6143188;23;20029;-73
2023/09/28 01:57:52;;;;;;;6.50;6.00;;;;;;;17.16;100.00;100782.72;6106293;23;20045;-73
2023/09/28 02:00:20;;;;;;;6.20;5.80;;;;;;;16.78;100.00;100716.72;6113478;23;20053;-74
2023/09/28 02:02:47;;;;;;;6.38;5.97;;;;;;;16.59;100.00;100662.53;6085248;23;20013;-74
2023/09/28 02:05:18;;;;;;;6.45;6.05;;;;;;;16.98;100.00;100737.28;6113191;23;20040;-73
2023/09/28 02:07:46;;;;;;;7.53;6.93;;;;;;;16.93;100.00;100726.16;6074548;23;20006;-73
2023/09/28 02:10:14;;;;;;;6.80;6.30;;;;;;;16.71;100.00;100688.06;6060584;23;20062;-74
2023/09/28 02:12:45;;;;;;;6.72;6.22;;;;;;;17.15;100.00;100763.28;6091995;23;20013;-73
2023/09/28 02:15:15;;;;;;;7.07;6.63;;;;;;;16.60;100.00;100681.91;6112100;23;20144;-73
2023/09/28 02:17:44;;;;;;;7.60;7.00;;;;;;;17.05;100.00;100769.44;6116048;23;20016;-74
2023/09/28 02:20:15;;;;;;;7.57;6.93;;;;;;;16.92;100.00;100758.97;6112746;23;20174;-73
2023/09/28 02:22:44;;;;;;;6.78;5.95;;;;;;;16.44;100.00;100692.88;6111489;23;20009;-73
2023/09/28 02:25:17;;;;;;;7.88;7.38;;;;;;;16.49;100.00;100720.66;6138673;23;20021;-73
2023/09/28 02:27:45;;;;;;;6.43;6.03;;;;;;;16.75;100.00;100782.25;6140850;23;20390;-73
2023/09/28 02:30:14;;;;;;;6.93;6.43;;;;;;;16.75;100.00;100786.72;6113234;23;20169;-73
2023/09/28 02:32:44;;;;;;;6.60;6.10;;;;;;;16.01;100.00;100682.88;6107079;23;20028;-72
2023/09/28 02:35:14;;;;;;;6.85;6.25;;;;;;;16.77;100.00;100807.81;6085586;23;20025;-74
2023/09/28 02:37:43;;;;;;;6.85;6.25;;;;;;;16.38;100.00;100762.19;6112003;23;20035;-73
2023/09/28 02:40:11;;;;;;;6.95;6.45;;;;;;;16.68;100.00;100804.06;6090257;23;20033;-72
2023/09/28 02:42:38;;;;;;;6.57;5.90;;;;;;;16.63;100.00;100824.78;6115248;23;20021;-73
2023/09/28 02:45:11;;;;;;;6.38;5.97;;;;;;;16.06;100.00;100749.56;6086506;23;20036;-74
2023/09/28 02:47:42;;;;;;;6.40;5.85;;;;;;;16.42;100.00;100825.44;6140599;23;20001;-73
2023/09/28 02:50:10;;;;;;;7.93;6.70;;;;;;;16.47;100.00;100838.31;6109784;23;20029;-73
2023/09/28 02:52:38;;;;;;;6.20;5.80;;;;;;;15.75;100.00;100763.28;6140959;23;20476;-73
2023/09/28 02:55:07;;;;;;;6.68;6.22;;;;;;;16.06;100.00;100831.66;6136655;23;20247;-73
2023/09/28 02:57:35;;;;;;;6.55;6.15;;;;;;;16.26;100.00;100869.91;6141034;23;19998;-74
2023/09/28 03:00:11;;;;;;;6.68;6.25;;;;;;;15.40;100.00;100731.41;6086186;23;20014;-73
2023/09/28 03:02:38;;;;;;;6.70;6.18;;;;;;;16.32;100.00;100891.47;6143967;23;20020;-73
2023/09/28 03:05:07;;;;;;;6.75;6.25;;;;;;;16.01;100.00;100852.31;6111879;23;20309;-73
2023/09/28 03:07:34;;;;;;;6.43;5.95;;;;;;;15.72;100.00;100811.09;6122722;23;20017;-73
2023/09/28 03:10:03;;;;;;;6.68;6.18;;;;;;;15.65;100.00;100814.28;6084622;23;20044;-73
2023/09/28 03:12:29;;;;;;;6.78;6.28;;;;;;;15.67;100.00;100841.47;6137928;23;20427;-73
2023/09/28 03:14:55;;;;;;;6.60;6.13;;;;;;;16.07;100.00;100910.09;6102541;23;20254;-73
2023/09/28 03:17:22;;;;;;;6.65;6.15;;;;;;;15.95;100.00;100901.22;6138630;23;20037;-73
2023/09/28 03:19:48;;;;;;;6.45;5.90;;;;;;;15.85;100.00;100892.25;6112836;23;20032;-73
2023/09/28 03:22:15;;;;;;;7.40;6.63;;;;;;;15.69;100.00;100885.38;6138810;23;20039;-73
2023/09/28 03:24:41;;;;;;;6.20;5.80;;;;;;;15.70;100.00;100891.53;6085894;23;20017;-73
2023/09/28 03:27:08;;;;;;;6.47;6.05;;;;;;;15.58;100.00;100874.72;6109549;23;20228;-72
2023/09/28 03:29:38;;;;;;;6.40;6.00;;;;;;;15.32;100.00;100861.50;6107408;23;20595;-73
2023/09/28 03:32:05;;;;;;;6.65;6.25;;;;;;;15.62;100.00;100921.16;6137307;23;20041;-73
2023/09/28 03:34:32;;;;;;;6.38;5.97;;;;;;;15.46;100.00;100908.16;6099851;23;20083;-72
2023/09/28 03:36:58;;;;;;;6.50;6.10;;;;;;;14.62;100.00;100779.16;6142661;23;20844;-73
2023/09/28 03:39:25;;;;;;;6.82;6.22;;;;;;;15.09;100.00;100881.59;6110933;23;20142;-73
2023/09/28 03:41:51;;;;;;;6.65;6.05;;;;;;;15.51;100.00;100953.63;6142439;23;20045;-73
2023/09/28 03:44:17;;;;;;;6.60;6.20;;;;;;;15.48;100.00;100961.78;6085219;23;20583;-74
2023/09/28 03:46:44;;;;;;;6.55;6.15;;;;;;;15.35;100.00;100956.50;6108019;23;20428;-72
2023/09/28 03:49:10;;;;;;;6.43;6.03;;;;;;;15.41;100.00;100976.38;6131894;23;21261;-73
2023/09/28 03:51:37;;;;;;;6.30;5.90;;;;;;;15.08;100.00;100931.94;6106687;23;20475;-73
2023/09/28 03:54:05;;;;;;;6.10;5.70;;;;;;;15.34;100.00;100996.28;6135935;23;20017;-73
2023/09/28 03:56:32;;;;;;;6.80;6.20;;;;;;;15.29;100.00;100985.16;6084298;23;20041;-73
2023/09/28 03:58:58;;;;;;;6.70;6.20;;;;;;;15.26;100.00;100978.28;6110881;23;20157;-72
2023/09/28 04:01:26;;;;;;;7.00;6.50;;;;;;;14.78;100.00;100919.81;6084661;23;20520;-73
2023/09/28 04:03:53;;;;;;;6.25;5.85;;;;;;;15.18;100.00;100991.16;6113804;23;20424;-72
2023/09/28 04:06:20;;;;;;;6.95;6.50;;;;;;;14.81;100.00;100942.53;6110245;23;20052;-72
2023/09/28 04:08:46;;;;;;;6.88;6.25;;;;;;;14.90;100.00;100955.16;6096799;23;20749;-75
2023/09/28 04:11:12;;;;;;;6.82;6.38;;;;;;;15.00;100.00;100965.97;6084497;23;20088;-72
2023/09/28 04:13:39;;;;;;;6.35;5.85;;;;;;;15.10;100.00;100989.03;6139134;23;20021;-72
2023/09/28 04:16:05;;;;;;;6.82;6.28;;;;;;;14.98;100.00;100986.38;6098749;23;20036;-73
2023/09/28 04:18:32;;;;;;;6.15;5.75;;;;;;;15.08;100.00;100990.94;6136086;23;20045;-73
2023/09/28 04:20:58;;;;;;;6.15;5.75;;;;;;;14.94;100.00;100975.97;6115612;23;20029;-73
2023/09/28 04:23:25;;;;;;;6.70;6.20;;;;;;;15.18;100.00;101020.25;6140221;23;20049;-73
2023/09/28 04:25:51;;;;;;;9.27;7.10;;;;;;;15.16;100.00;101017.69;6078370;23;20107;-73
2023/09/28 04:28:18;;;;;;;6.35;5.95;;;;;;;15.16;100.00;101020.34;6111066;23;20024;-73
2023/09/28 04:30:44;;;;;;;6.88;6.38;;;;;;;14.79;100.00;100962.94;6109545;23;20021;-73
2023/09/28 04:33:11;;;;;;;7.00;6.50;;;;;;;14.87;100.00;100992.34;6143766;23;20015;-73
2023/09/28 04:35:37;;;;;;;6.65;6.15;;;;;;;15.03;100.00;101011.53;6116182;23;20033;-73
2023/09/28 04:38:03;;;;;;;6.63;6.03;;;;;;;14.87;100.00;100985.25;6141178;23;20104;-73
2023/09/28 04:40:30;;;;;;;7.53;6.40;;;;;;;14.75;100.00;100973.72;6108283;23;20114;-73
2023/09/28 04:42:56;;;;;;;7.53;6.53;;;;;;;15.11;100.00;101035.69;6141685;23;20091;-73
2023/09/28 04:45:23;;;;;;;7.05;6.40;;;;;;;14.16;100.00;100892.09;6142721;23;20088;-73
2023/09/28 04:47:49;;;;;;;6.38;5.90;;;;;;;14.76;100.00;100975.41;6106899;23;20093;-73
2023/09/28 04:50:16;;;;;;;6.82;6.32;;;;;;;15.09;100.00;101036.72;6095742;23;20045;-73
2023/09/28 04:52:43;;;;;;;6.40;5.90;;;;;;;14.86;100.00;101017.91;6110570;23;20025;-73
2023/09/28 04:55:10;;;;;;;6.75;6.25;;;;;;;14.92;100.00;101022.81;6059636;23;20038;-73
2023/09/28 04:57:37;;;;;;;6.97;6.47;;;;;;;14.02;100.00;100878.94;6089577;23;20016;-73
2023/09/28 05:00:09;;;;;;;6.47;5.97;;;;;;;14.74;100.00;101009.00;6060212;23;20061;-73
2023/09/28 05:02:35;;;;;;;6.65;6.20;;;;;;;14.99;100.00;101052.31;6085980;23;20001;-73
2023/09/28 05:05:05;;;;;;;6.60;6.20;;;;;;;14.77;100.00;101018.50;6081967;23;20095;-73
2023/09/28 05:07:32;;;;;;;5.93;5.53;;;;;;;15.06;100.00;101058.06;6112470;23;20074;-73
2023/09/28 05:09:59;;;;;;;6.47;6.07;;;;;;;14.93;100.00;101040.38;6084059;23;20538;-73
2023/09/28 05:12:25;;;;;;;6.28;5.88;;;;;;;14.87;100.00;101042.53;6082171;23;20036;-73
2023/09/28 05:14:52;;;;;;;6.28;5.88;;;;;;;14.87;100.00;101051.31;6088162;23;20056;-72
2023/09/28 05:17:19;;;;;;;6.75;6.28;;;;;;;14.76;100.00;101037.97;6111867;23;20018;-73
2023/09/28 05:19:45;;;;;;;6.97;6.38;;;;;;;14.77;100.00;101037.00;6113542;23;20521;-73
2023/09/28 05:22:13;;;;;;;6.60;6.18;;;;;;;14.45;100.00;100976.53;6107475;23;20025;-75
2023/09/28 05:24:39;;;;;;;6.47;6.07;;;;;;;14.65;100.00;101020.13;6113083;23;20092;-73
2023/09/28 05:27:06;;;;;;;6.72;6.32;;;;;;;14.41;100.00;100976.78;6112747;23;20021;-73
2023/09/28 05:29:32;;;;;;;6.10;5.70;;;;;;;14.89;100.00;101045.94;6108461;23;20609;-73
2023/09/28 05:31:58;;;;;;;6.28;5.88;;;;;;;15.02;100.00;101065.34;6110401;23;20100;-73
2023/09/28 05:34:27;;;;;;;6.47;6.03;;;;;;;14.64;100.00;101007.91;6140068;23;20089;-73
2023/09/28 05:36:53;;;;;;;6.47;6.07;;;;;;;14.55;100.00;101003.16;6141609;23;20017;-71
2023/09/28 05:39:21;;;;;;;6.30;5.90;;;;;;;14.62;100.00;101025.63;6084600;23;20025;-72
2023/09/28 05:41:48;;;;;;;6.80;6.30;;;;;;;14.97;100.00;101080.63;6144348;23;20649;-71
2023/09/28 05:44:14;;;;;;;6.50;6.00;;;;;;;14.83;100.00;101062.19;6088621;23;20018;-73
2023/09/28 05:46:41;;;;;;;6.38;5.97;;;;;;;14.97;100.00;101088.56;6113767;23;20460;-73
2023/09/28 05:49:07;;;;;;;7.07;6.00;;;;;;;14.39;100.00;101008.56;6057695;23;20041;-71
2023/09/28 05:51:34;;;;;;;6.78;6.25;;;;;;;14.97;100.00;101099.13;6113353;23;20021;-71
2023/09/28 05:54:00;;;;;;;7.20;6.60;;;;;;;14.55;100.00;101041.00;6088674;23;20017;-71
2023/09/28 05:56:27;;;;;;;6.80;6.30;;;;;;;15.00;100.00;101119.25;6074583;23;20663;-73
2023/09/28 05:58:53;;;;;;;6.32;5.93;;;;;;;14.76;100.00;101091.66;6111220;23;20029;-71
2023/09/28 06:01:22;;;;;;;6.75;6.30;;;;;;;14.89;100.00;101128.72;6083310;23;20255;-71
2023/09/28 06:03:48;;;;;;;6.75;6.25;;;;;;;15.00;100.00;101135.13;6103226;23;20032;-71
2023/09/28 06:06:17;;;;;;;6.78;6.20;;;;;;;15.11;100.00;101152.00;6123155;23;20024;-71
2023/09/28 06:08:46;;;;;;;6.95;6.25;;;;;;;15.07;100.00;101137.25;6108675;23;20075;-70
2023/09/28 06:11:14;;;;;;;6.70;6.20;;;;;;;15.22;100.00;101150.44;6137005;23;20286;-71
2023/09/28 06:13:41;;;;;;;6.95;6.45;;;;;;;15.23;100.00;101152.13;6122519;23;20463;-71
2023/09/28 06:16:27;;;;;;;6.78;6.28;;;;;;;15.30;100.00;101153.44;6107681;23;20447;-71
2023/09/28 06:18:54;;;;;;;7.03;6.43;;;;;;;15.00;100.00;101113.97;6120359;23;20223;-71
2023/09/28 06:21:21;;;;;;;6.60;6.20;;;;;;;14.87;100.00;101084.81;6110413;23;20166;-71
2023/09/28 06:23:47;;;;;;;7.18;6.63;;;;;;;15.21;100.00;101123.13;6104878;23;20032;-71
2023/09/28 06:26:13;;;;;;;7.00;6.50;;;;;;;15.45;100.00;101156.88;6078905;23;20098;-71
2023/09/28 06:29:00;;;;;;;7.57;6.80;;;;;;;15.58;100.00;101164.88;6107187;23;20033;-72
2023/09/28 06:31:26;;;;;;;7.50;6.90;;;;;;;15.52;100.00;101132.56;6107548;23;20089;-71
2023/09/28 06:33:53;;;;;;;7.10;6.55;;;;;;;15.56;100.00;101112.06;6077482;23;20026;-72
2023/09/28 06:36:20;;;;;;;8.13;7.43;;;;;;;16.00;100.00;101173.59;6082857;23;20022;-72
2023/09/28 06:39:08;;;;;;;6.65;6.15;;;;;;;16.08;100.00;101169.47;6115736;23;20152;-71
2023/09/28 06:41:35;;;;;;;7.72;7.03;;;;;;;16.24;100.00;101177.22;6081153;23;20075;-71
2023/09/28 06:44:01;;;;;;;8.07;7.38;;;;;;;16.34;100.00;101180.06;6103126;23;20018;-71
2023/09/28 06:46:28;;;;;;;8.25;7.60;;;;;;;15.90;100.00;101107.19;6138008;23;20436;-71
2023/09/28 06:48:55;;;;;;;8.25;7.50;;;;;;;16.32;100.00;101174.03;6084743;23;20401;-71
2023/09/28 06:51:22;;;;;;;8.00;7.20;;;;;;;16.21;100.00;101150.09;6139464;23;20101;-71
2023/09/28 06:53:49;;;;;;;8.18;7.50;;;;;;;16.37;100.00;101148.06;6112189;23;20405;-70
2023/09/28 06:56:16;;;;;;;8.48;7.65;;;;;;;16.16;100.00;101094.81;6112207;23;20385;-71
2023/09/28 06:58:43;;;;;;;7.38;6.68;;;;;;;16.46;100.00;101120.09;6117645;23;20524;-71
2023/09/28 07:01:09;;;;;;;8.23;7.57;;;;;;;16.48;100.00;101100.50;6095188;23;20034;-72
2023/09/28 07:03:36;;;;;;;7.55;7.05;;;;;;;16.61;100.00;101104.91;6132105;23;20032;-71
2023/09/28 07:06:04;;;;;;;7.57;6.97;;;;;;;16.60;100.00;101088.19;6105379;23;20028;-71
2023/09/28 07:08:31;;;;;;;7.25;6.68;;;;;;;16.86;100.00;101119.97;6139794;23;20056;-71
2023/09/28 07:10:58;;;;;;;7.05;6.32;;;;;;;16.88;100.00;101100.31;6102554;23;20037;-71
2023/09/28 07:13:24;;;;;;;7.80;6.70;;;;;;;17.21;100.00;101124.50;6084342;23;20185;-71
2023/09/28 07:15:51;;;;;;;7.60;6.97;;;;;;;16.81;100.00;101063.72;6131728;23;20031;-71
2023/09/28 07:18:17;;;;;;;7.50;6.90;;;;;;;17.00;100.00;101064.13;6079609;23;20029;-71
2023/09/28 07:20:44;;;;;;;7.78;7.07;;;;;;;17.47;100.00;101134.00;6133500;23;20090;-71
2023/09/28 07:23:10;;;;;;;7.55;6.63;;;;;;;17.44;100.00;101105.06;6107095;23;20033;-73
2023/09/28 07:25:37;;;;;;;8.05;7.05;;;;;;;17.64;100.00;101113.31;6111544;23;20788;-73
2023/09/28 07:28:04;;;;;;;6.90;6.40;;;;;;;17.63;100.00;101093.06;6111541;23;20017;-71
2023/09/28 07:30:30;;;;;;;7.55;6.95;;;;;;;17.30;100.00;101017.72;6107864;23;20029;-71
2023/09/28 07:32:57;;;;;;;6.72;6.22;;;;;;;18.03;100.00;101109.47;6119911;23;20049;-71
2023/09/28 07:35:23;;;;;;;6.47;6.07;;;;;;;18.06;100.00;101089.78;6103794;23;20050;-71
2023/09/28 07:37:50;;;;;;;7.25;6.57;;;;;;;17.93;100.00;101066.84;6115346;23;20018;-71
2023/09/28 07:40:17;;;;;;;6.63;6.20;;;;;;;18.10;100.00;101073.53;6137537;23;20025;-71
2023/09/28 07:42:54;;;;;;;7.18;6.65;;;;;;;18.42;100.00;101075.47;6093033;23;20172;-71
2023/09/28 07:45:20;;;;;;;7.07;6.50;;;;;;;18.65;100.00;101110.81;6101399;23;20463;-71
2023/09/28 07:47:46;;;;;;;7.40;6.80;;;;;;;18.63;100.00;101102.13;6109833;23;20025;-72
2023/09/28 07:50:14;;;;;;;6.82;6.32;;;;;;;18.70;100.00;101075.88;6081826;23;20037;-71
2023/09/28 07:52:42;;;;;;;7.35;6.72;;;;;;;18.93;100.00;101090.03;6121768;23;20017;-71
2023/09/28 07:55:09;;;;;;;7.15;6.55;;;;;;;19.30;100.00;101125.13;6110846;23;20033;-71
2023/09/28 07:57:36;;;;;;;6.97;6.47;;;;;;;19.64;100.00;101127.63;6134818;23;20017;-71
2023/09/28 08:00:22;;;;;;;7.28;6.78;;;;;;;19.21;100.00;100990.16;6117454;23;20029;-71
2023/09/28 08:02:49;;;;;;;6.38;5.88;;;;;;;19.82;100.00;101034.69;6136509;23;20184;-71
2023/09/28 08:05:15;;;;;;;6.68;6.18;;;;;;;20.33;100.00;101071.13;6111269;23;20187;-72
2023/09/28 08:07:42;;;;;;;7.00;6.50;;;;;;;20.37;100.00;101039.72;6114257;23;20013;-71
2023/09/28 08:10:22;;;;;;;7.05;6.55;;;;;;;20.81;100.00;101060.78;6088079;23;20029;-71
2023/09/28 08:12:49;;;;;;;7.55;6.47;;;;;;;20.82;100.00;101006.44;6142971;23;20021;-72
2023/09/28 08:15:15;;;;;;;6.30;5.90;;;;;;;20.59;100.00;100961.38;6106134;23;20084;-71
2023/09/28 08:18:01;;;;;;;6.63;6.22;;;;;;;20.37;100.00;100910.94;6105566;23;20092;-72
2023/09/28 08:20:27;;;;;;;7.20;6.70;;;;;;;20.50;100.00;100940.81;6107465;23;20071;-71
2023/09/28 08:22:57;;;;;;;6.32;5.93;;;;;;;20.98;100.00;101006.72;6118600;23;20122;-71
2023/09/28 08:25:24;;;;;;;6.85;6.35;;;;;;;21.02;100.00;100981.44;6087349;23;20022;-71
2023/09/28 08:27:51;;;;;;;6.93;6.47;;;;;;;20.87;97.49;100903.66;6143626;23;20101;-71
2023/09/28 08:30:17;;;;;;;7.68;7.07;;;;;;;21.22;93.33;100896.00;6114997;23;20025;-72
2023/09/28 08:38:33;;;;;;;6.38;5.97;;;;;;;21.28;94.17;100916.78;6136750;23;20088;-71
2023/09/28 08:41:43;;;;;;;6.68;6.07;;;;;;;21.60;93.26;100950.31;6114960;23;20110;-71
2023/09/28 08:44:30;;;;;;;6.60;6.15;;;;;;;20.84;92.63;100809.75;6108256;23;20028;-71
2023/09/28 08:47:00;;;;;;;6.80;6.40;;;;;;;21.65;88.53;100870.56;6107507;23;20413;-71
2023/09/28 08:52:34;;;;;;;6.40;6.00;;;;;;;21.72;87.39;100887.72;6139560;23;20427;-72
2023/09/28 08:55:03;;;;;;;6.97;6.40;;;;;;;21.83;88.92;100932.94;6108611;23;20037;-72
2023/09/28 08:57:30;;;;;;;6.68;6.22;;;;;;;21.77;88.36;100924.66;6112889;23;20025;-71
2023/09/28 08:59:58;;;;;;;6.90;6.40;;;;;;;21.73;87.59;100897.41;6140397;23;20020;-71
2023/09/28 09:02:27;;;;;;;6.28;5.95;;;;;;;21.63;83.68;100819.13;6139383;23;20080;-71
2023/09/28 09:04:54;;;;;;;7.53;6.30;;;;;;;21.89;84.89;100894.94;6104587;23;20581;-73
2023/09/28 09:07:21;;;;;;;7.53;6.75;;;;;;;21.99;87.41;100956.34;6116730;23;20020;-71
2023/09/28 09:09:50;;;;;;;7.03;6.53;;;;;;;21.94;85.88;100905.16;6113001;23;20029;-71
2023/09/28 09:12:17;;;;;;;8.13;6.75;;;;;;;21.77;83.77;100856.06;6141022;23;20023;-72
2023/09/28 09:14:44;;;;;;;7.00;6.43;;;;;;;21.61;85.56;100869.19;6105126;23;20404;-71
2023/09/28 09:17:11;;;;;;;6.82;6.22;;;;;;;21.46;84.24;100844.81;6136186;23;20017;-71
2023/09/28 09:19:38;;;;;;;6.72;6.22;;;;;;;21.70;84.20;100887.00;6105870;23;20049;-71
2023/09/28 09:22:05;;;;;;;6.60;6.10;;;;;;;21.39;83.56;100855.22;6137639;23;20452;-71
2023/09/28 09:24:52;;;;;;;7.47;6.38;;;;;;;21.63;84.83;100926.84;6109777;23;20025;-72
2023/09/28 09:27:28;;;;;;;6.25;5.85;;;;;;;21.58;84.31;100875.69;6134386;23;20240;-71
2023/09/28 09:30:14;;;;;;;6.38;5.88;;;;;;;22.00;83.96;100931.28;6079684;23;20026;-72
2023/09/28 09:32:42;;;;;;;7.05;6.32;;;;;;;22.07;83.47;100918.16;6107535;23;20022;-71
2023/09/28 09:35:10;;;;;;;6.68;6.13;;;;;;;22.47;80.56;100903.59;6081843;23;20480;-71
2023/09/28 09:37:41;;;;;;;6.80;6.30;;;;;;;22.70;78.91;100872.69;6076858;23;20139;-71
2023/09/28 09:40:12;;;;;;;7.65;6.00;;;;;;;22.90;75.65;100792.22;6083476;23;20054;-71
2023/09/28 09:42:39;;;;;;;6.78;6.28;;;;;;;22.22;75.11;100685.94;6106856;23;20014;-71
2023/09/28 09:45:07;;;;;;;6.50;6.00;;;;;;;23.11;73.56;100805.25;6076753;23;20014;-72
2023/09/28 09:47:34;;;;;;;6.50;6.00;;;;;;;23.30;73.42;100825.59;6108641;23;20456;-72
2023/09/28 09:50:01;;;;;;;6.63;6.13;;;;;;;23.15;72.32;100758.41;6106821;23;20025;-71
2023/09/28 09:52:29;;;;;;;8.80;6.40;;;;;;;23.76;72.45;100850.25;6110069;23;20435;-71
2023/09/28 09:54:56;;;;;;;6.20;5.80;;;;;;;23.67;70.78;100755.59;6052248;23;20347;-71
2023/09/28 09:57:23;;;;;;;6.20;5.90;;;;;;;23.33;71.16;100774.38;6052005;23;20024;-72
2023/09/28 09:59:53;;;;;;;6.85;6.35;;;;;;;23.15;73.20;100844.09;6106907;23;20484;-72
2023/09/28 10:02:28;;;;;;;7.90;6.22;;;;;;;22.72;74.89;100840.44;6079352;23;20075;-71
2023/09/28 10:04:55;;;;;;;6.25;5.80;;;;;;;22.62;74.06;100799.56;6082092;23;20515;-71
2023/09/28 10:07:28;;;;;;;7.20;6.50;;;;;;;22.84;73.09;100795.53;6084803;23;20029;-72
2023/09/28 10:10:14;;;;;;;6.88;6.15;;;;;;;23.04;73.66;100861.28;6086183;23;20388;-71
2023/09/28 10:12:41;;;;;;;6.60;6.13;;;;;;;22.60;73.31;100807.75;6107216;23;20020;-72
2023/09/28 10:15:09;;;;;;;6.43;6.03;;;;;;;22.54;75.03;100858.34;6082351;23;20083;-71
2023/09/28 10:17:36;;;;;;;7.65;6.78;;;;;;;22.53;73.89;100830.75;6075218;23;20093;-71
2023/09/28 10:20:06;;;;;;;6.07;5.70;;;;;;;22.66;75.52;100895.41;6111722;23;20083;-71
2023/09/28 10:22:33;;;;;;;6.47;6.07;;;;;;;22.96;72.97;100871.88;6107653;23;20037;-72
2023/09/28 10:25:00;;;;;;;6.40;6.00;;;;;;;23.09;72.34;100871.50;6079872;23;20041;-71
2023/09/28 10:27:26;;;;;;;6.20;5.80;;;;;;;22.52;71.49;100735.47;6052826;23;20211;-72
2023/09/28 10:30:15;;;;;;;6.18;5.78;;;;;;;23.11;70.62;100832.03;6052071;23;20390;-71
2023/09/28 10:32:42;;;;;;;6.65;6.25;;;;;;;22.58;70.40;100715.28;6102419;23;20053;-72
2023/09/28 10:35:24;;;;;;;6.57;6.05;;;;;;;22.75;70.28;100789.28;6075218;23;20062;-72
2023/09/28 10:38:15;;;;;;;6.85;6.28;;;;;;;23.18;72.02;100897.34;6083244;23;20590;-72
2023/09/28 10:41:05;;;;;;;6.55;6.15;;;;;;;23.29;71.07;100837.31;6110622;23;20377;-72
2023/09/28 10:43:45;;;;;;;7.32;6.72;;;;;;;23.48;70.25;100860.34;6079538;23;20049;-72
2023/09/28 10:46:12;;;;;;;6.47;6.07;;;;;;;23.72;70.03;100854.25;6079351;23;20058;-72
2023/09/28 10:48:44;;;;;;;6.43;6.03;;;;;;;24.14;69.68;100898.97;6079859;23;20397;-72
2023/09/28 10:51:16;;;;;;;7.43;6.43;;;;;;;24.16;66.55;100788.88;6086435;23;20021;-72
2023/09/28 10:53:43;;;;;;;6.90;6.45;;;;;;;23.95;66.94;100824.19;6069054;23;20436;-72
2023/09/28 10:56:10;;;;;;;7.18;6.65;;;;;;;23.92;67.78;100845.97;6045838;23;20025;-72
2023/09/28 10:58:39;;;;;;;6.60;6.20;;;;;;;23.94;67.76;100822.53;6102419;23;20029;-72
2023/09/28 11:01:07;;;;;;;6.70;6.22;;;;;;;23.78;66.48;100767.88;6078971;23;20030;-71
2023/09/28 11:03:35;;;;;;;6.40;5.90;;;;;;;23.69;67.34;100811.69;6078684;23;20126;-72
2023/09/28 11:06:03;;;;;;;6.18;5.88;;;;;;;23.70;66.53;100799.97;6107719;23;20273;-72
2023/09/28 11:08:31;;;;;;;6.60;6.10;;;;;;;23.56;67.90;100855.03;6073351;23;20313;-72
2023/09/28 11:11:01;;;;;;;6.78;6.28;;;;;;;23.26;67.92;100795.63;6107627;23;20488;-73
2023/09/28 11:13:29;;;;;;;6.60;6.10;;;;;;;23.46;68.60;100851.63;6077784;23;20614;-72
2023/09/28 11:15:56;;;;;;;8.20;6.35;;;;;;;23.40;68.87;100852.28;6109134;23;20061;-72
2023/09/28 11:18:26;;;;;;;6.60;6.20;;;;;;;23.75;68.45;100883.38;6078444;23;20620;-72
2023/09/28 11:20:58;;;;;;;6.28;5.72;;;;;;;23.76;66.86;100804.69;6105986;23;20083;-72
2023/09/28 11:23:25;;;;;;;8.00;6.43;;;;;;;23.75;65.83;100781.56;6079611;23;20029;-72
2023/09/28 11:25:52;;;;;;;6.43;5.93;;;;;;;23.70;69.02;100910.66;6076677;23;20022;-73
2023/09/28 11:28:19;;;;;;;6.72;6.28;;;;;;;23.59;70.63;100921.66;6116606;23;20428;-73
2023/09/28 11:31:07;;;;;;;8.60;6.30;;;;;;;24.24;69.27;100931.84;6109627;23;20142;-72
2023/09/28 11:33:42;;;;;;;6.57;5.97;;;;;;;24.32;66.61;100830.94;6149794;23;20135;-72
2023/09/28 11:36:14;;;;;;;7.05;6.55;;;;;;;23.94;66.02;100756.34;6111043;23;20333;-71